Fresno Yosemite International Airport
KFAT : now visible

Airfield :











YOU CAN JOIN US ON...

 
LOGIN :

Register | Disclaimer

   EN    FR    IT 

 









Legend :    VFR   Marginal VFR   IFR   Intensive IFR   Very Intensive IFR
Visi :
Ceiling :
>= 8 km
>= 3000ft
5 to 8 km
1000 to 3000 ft
1500m to 5 km
500 to 1000 ft
800 to 1500m
200 to 500 ft
< 800m
< 200 ft
Symbols :   Thunderstorms  Fog  Heavy snow  Heavy precipitations  Wind > 20 kt






- Airport Elevation : 336 ft
- IATA code : FAT


KFAT - Fresno Yosemite International

CURRENT METAR :
  • 142053Z 32015KT 10SM FEW024 BKN070 15/08 A3001 RMK AO2 SLP161 T01500078 58017

EXPIRED METARs :
  • 141953Z 31015KT 10SM SCT024 SCT070 BKN250 15/08 A3003 RMK AO2 SLP168 T01500078
  • 141853Z 32013KT 10SM SCT048 BKN070 BKN250 14/09 A3006 RMK AO2 SLP176 T01390094

TAF KFAT
Valid from the 14 at 18:00 until the 15 at 18:00 UTC


141720Z 1418/1518 31009KT P6SM SCT040 BKN070
FM142200 31012KT P6SM SCT040 BKN250
FM150800 31006KT P6SM SCT250
TEMPO 1513/1517 4SM BR



MET'MAP, your aeronautical weather chart ! - Copyright ORBIFLY December 2007 - Disclaimer

ORBIFLY MET'MAP TEAM :

Programming & Development : Alexandra Zaïnal
Concept & original design : Baudouin d'Aumeries
Assistance for programming : Marc-Olivier Méhu
Technical & hardware support : Manuel Goepfert

Contact : metmap@orbifly.com




SOURCES & CREDITS :

   NOAA       Earth
Advisory